Potawatomi Indian Reservatio, Wisconsin
Current Conditions -  °F | °C
As of 3:53 PM on Monday 20 Oct 2014 (Local Time) from KASX Reporting Station
Overcast Overcast  
Wind Chill: 53°   Ceiling: 5000
Heat Index: 53°   Visibility: 10mi
Dew Point: 39°   Wind: 10mph
Humidity: 59%   Direction: 360°N
Pressure: 30"   Gusts: NA
Location:  46.543°N, 90.8706°W
Report Text: KASX 202053Z AUTO 36009KT 10SM OVC050 12/04 A3000 RMK AO2 SLP165 T01170039 53010
Loading
Personal Weather Stations






























Interactive Weather Map
Tropical Storm Tracking
New forecast layout! Learn more

10-Day Weather Forecast

Advertisements
Track Severe Weather on mobile